createdAt,value
2019-04-05T00:08:02.995Z,14.33
2019-04-05T00:10:34.938Z,13.10
2019-04-05T00:15:50.319Z,14.30
2019-04-05T00:18:22.269Z,13.93
2019-04-05T00:20:54.239Z,13.87
2019-04-05T00:23:26.194Z,15.27
2019-04-05T00:25:58.140Z,12.73
2019-04-05T00:28:30.064Z,13.87
2019-04-05T00:31:02.054Z,14.63
2019-04-05T00:33:53.573Z,14.40
2019-04-05T00:36:25.492Z,15.63
2019-04-05T00:38:57.419Z,15.17
2019-04-05T00:41:29.364Z,14.40
2019-04-05T00:44:01.294Z,14.73
2019-04-05T00:46:33.236Z,15.37
2019-04-05T00:49:05.163Z,14.23
2019-04-05T00:51:37.180Z,16.03
2019-04-05T00:54:09.107Z,14.57
2019-04-05T00:56:41.024Z,14.80
2019-04-05T00:59:19.884Z,15.47
2019-04-05T01:02:32.638Z,14.03
2019-04-05T01:05:04.639Z,15.37
2019-04-05T01:07:36.571Z,14.80
2019-04-05T01:10:49.330Z,14.93
2019-04-05T01:13:21.355Z,15.67
2019-04-05T01:15:53.306Z,15.27
2019-04-05T01:18:25.211Z,16.53
2019-04-05T01:21:38.018Z,14.93
2019-04-05T01:24:50.768Z,16.73
2019-04-05T01:28:03.702Z,16.97
2019-04-05T01:30:35.725Z,17.40
2019-04-05T01:33:07.641Z,17.83
2019-04-05T01:35:39.601Z,16.97
2019-04-05T01:38:11.654Z,18.70
2019-04-05T01:41:24.435Z,17.47
2019-04-05T01:43:56.338Z,17.57
2019-04-05T01:46:28.369Z,18.60
2019-04-05T01:49:00.268Z,17.67
2019-04-05T01:52:13.049Z,17.20
2019-04-05T01:54:45.000Z,17.83
2019-04-05T01:57:17.029Z,18.73
2019-04-05T01:59:49.072Z,18.83
2019-04-05T02:02:21.092Z,20.17
2019-04-05T02:04:53.131Z,19.43
2019-04-05T02:07:25.097Z,19.83
2019-04-05T02:10:37.855Z,19.43
2019-04-05T02:13:09.845Z,20.13
2019-04-05T02:15:41.789Z,20.43
2019-04-05T02:18:13.880Z,19.90
2019-04-05T02:20:45.855Z,22.57
2019-04-05T02:23:17.798Z,20.47
2019-04-05T02:25:49.754Z,20.23
2019-04-05T02:28:21.724Z,20.83
2019-04-05T02:30:53.663Z,21.63
2019-04-05T02:33:25.634Z,22.27
2019-04-05T02:35:57.576Z,19.77
2019-04-05T02:38:29.536Z,20.10
2019-04-05T02:41:02.128Z,20.40
2019-04-05T02:43:34.971Z,21.10
2019-04-05T02:46:22.667Z,19.40
2019-04-05T02:48:41.529Z,22.43
2019-04-05T02:51:15.398Z,22.80
2019-04-05T02:53:47.977Z,20.83
2019-04-05T02:56:20.272Z,25.23
2019-04-05T02:58:53.126Z,24.30
2019-04-05T03:01:25.485Z,21.50
2019-04-05T03:03:57.449Z,25.63
2019-04-05T03:06:29.487Z,22.67
2019-04-05T03:09:03.732Z,24.93
2019-04-05T03:11:37.432Z,24.03
2019-04-05T03:14:09.981Z,22.53
2019-04-05T03:16:44.389Z,23.30
2019-04-05T03:19:22.440Z,25.57
2019-04-05T03:22:00.620Z,24.10
2019-04-05T03:24:34.975Z,24.93
2019-04-05T03:27:18.023Z,23.80
2019-04-05T03:29:49.976Z,23.93
2019-04-05T03:32:22.210Z,23.93
2019-04-05T03:34:55.295Z,22.87
2019-04-05T03:37:27.322Z,25.47
2019-04-05T03:39:59.783Z,26.97
2019-04-05T03:42:31.714Z,25.87
2019-04-05T03:45:04.003Z,25.17
2019-04-05T03:47:35.941Z,23.60
2019-04-05T03:50:08.097Z,26.70
2019-04-05T03:52:40.102Z,25.47
2019-04-05T03:55:12.103Z,22.10
2019-04-05T03:57:44.053Z,21.60
2019-04-05T04:00:16.158Z,22.50
2019-04-05T04:02:48.106Z,19.83
2019-04-05T04:05:20.083Z,21.63
2019-04-05T04:07:52.040Z,22.17
2019-04-05T04:10:24.910Z,22.37
2019-04-05T04:12:56.870Z,21.30
2019-04-05T04:15:28.855Z,23.10
2019-04-05T04:18:00.845Z,22.27
2019-04-05T04:20:43.850Z,19.80
2019-04-05T04:23:16.174Z,21.80
2019-04-05T04:25:48.754Z,22.00
2019-04-05T04:28:20.877Z,20.93
2019-04-05T04:30:53.433Z,24.43
2019-04-05T04:33:25.364Z,22.60
2019-04-05T04:35:57.500Z,23.33
2019-04-05T04:38:29.546Z,23.40
2019-04-05T04:41:01.732Z,22.90
2019-04-05T04:43:34.434Z,23.00
2019-04-05T04:46:07.002Z,22.03
2019-04-05T04:48:39.017Z,24.27
2019-04-05T04:51:11.233Z,22.40
2019-04-05T04:53:43.331Z,22.03
2019-04-05T04:56:15.592Z,21.80
2019-04-05T04:58:47.598Z,22.37
2019-04-05T05:01:20.065Z,22.60
2019-04-05T05:03:52.039Z,23.23
2019-04-05T05:06:23.983Z,20.03
2019-04-05T05:08:56.159Z,22.90
2019-04-05T05:11:28.372Z,22.20
2019-04-05T05:14:00.452Z,22.40
2019-04-05T05:16:32.388Z,22.83
2019-04-05T05:19:04.391Z,23.57
2019-04-05T05:21:36.313Z,22.93
2019-04-05T05:24:08.304Z,22.50
2019-04-05T05:26:40.448Z,24.37
2019-04-05T05:29:12.715Z,21.13
2019-04-05T05:31:44.666Z,25.20
2019-04-05T05:34:16.636Z,21.37
2019-04-05T05:36:48.712Z,19.13
2019-04-05T05:39:21.095Z,20.33
2019-04-05T05:41:53.033Z,21.53
2019-04-05T05:44:24.993Z,19.93
2019-04-05T05:46:56.948Z,21.50
2019-04-05T05:49:28.929Z,21.30
2019-04-05T05:52:00.904Z,20.73
2019-04-05T05:54:32.884Z,20.40
2019-04-05T05:57:04.984Z,20.47
2019-04-05T05:59:36.938Z,21.20
2019-04-05T06:02:08.902Z,21.07
2019-04-05T06:04:40.869Z,20.30
2019-04-05T06:07:12.820Z,19.93
2019-04-05T06:09:47.586Z,20.33
2019-04-05T06:12:18.723Z,22.30
2019-04-05T06:14:50.697Z,21.53
2019-04-05T06:17:22.651Z,19.87
2019-04-05T06:19:54.697Z,21.30
2019-04-05T06:22:26.656Z,20.07
2019-04-05T06:24:58.626Z,19.27
2019-04-05T06:27:30.625Z,18.53
2019-04-05T06:30:03.460Z,19.80
2019-04-05T06:32:35.464Z,18.77
2019-04-05T06:35:07.501Z,18.97
2019-04-05T06:37:39.447Z,20.70
2019-04-05T06:40:11.735Z,19.07
2019-04-05T06:42:43.684Z,20.80
2019-04-05T06:45:15.683Z,20.63
2019-04-05T06:47:47.639Z,21.43
2019-04-05T06:50:19.636Z,24.40
2019-04-05T06:52:51.604Z,23.43
2019-04-05T06:55:23.588Z,22.27
2019-04-05T06:57:55.618Z,20.27
2019-04-05T07:00:28.568Z,20.07
2019-04-05T07:03:01.134Z,21.17
2019-04-05T07:05:33.153Z,21.83
2019-04-05T07:08:05.140Z,24.13
2019-04-05T07:10:37.318Z,23.60
2019-04-05T07:13:09.440Z,22.73
2019-04-05T07:15:41.398Z,23.97
2019-04-05T07:18:13.442Z,23.50
2019-04-05T07:20:45.435Z,26.30
2019-04-05T07:23:17.445Z,22.97
2019-04-05T07:25:49.397Z,26.37
2019-04-05T07:28:21.390Z,23.83
2019-04-05T07:30:53.360Z,23.10
2019-04-05T07:33:25.353Z,24.37
2019-04-05T07:35:57.321Z,22.10
2019-04-05T07:38:29.305Z,22.90
2019-04-05T07:41:01.325Z,22.50
2019-04-05T07:43:33.328Z,24.13
2019-04-05T07:46:05.271Z,23.53
2019-04-05T07:48:44.638Z,24.33
2019-04-05T07:51:11.124Z,22.83
2019-04-05T07:53:43.084Z,25.13
2019-04-05T07:56:15.039Z,22.17
2019-04-05T07:58:47.009Z,25.83
2019-04-05T08:01:19.047Z,22.90
2019-04-05T08:03:51.056Z,24.70
2019-04-05T08:06:23.022Z,24.07
2019-04-05T08:09:07.941Z,24.57
2019-04-05T08:11:41.339Z,25.80
2019-04-05T08:14:14.453Z,27.03
2019-04-05T08:16:46.443Z,25.17
2019-04-05T08:19:18.475Z,26.53
2019-04-05T08:21:50.421Z,23.57
2019-04-05T08:24:22.393Z,25.10
2019-04-05T08:26:54.368Z,22.97
2019-04-05T08:29:26.360Z,27.90
2019-04-05T08:31:58.383Z,25.40
2019-04-05T08:34:30.384Z,25.33
2019-04-05T08:37:02.360Z,24.93
2019-04-05T08:39:34.372Z,27.40
2019-04-05T08:42:06.375Z,24.67
2019-04-05T08:44:38.395Z,28.17
2019-04-05T08:47:10.392Z,27.63
2019-04-05T08:49:42.422Z,29.33
2019-04-05T08:52:14.441Z,30.93
2019-04-05T08:54:46.451Z,29.33
2019-04-05T08:57:18.442Z,29.43
2019-04-05T08:59:53.278Z,27.80
2019-04-05T09:02:24.561Z,26.40
2019-04-05T09:04:56.558Z,28.00
2019-04-05T09:07:28.663Z,26.37
2019-04-05T09:10:00.816Z,27.10
2019-04-05T09:12:32.827Z,26.47
2019-04-05T09:15:05.220Z,26.20
2019-04-05T09:17:37.235Z,25.77
2019-04-05T09:20:09.627Z,26.63
2019-04-05T09:22:41.620Z,24.50
2019-04-05T09:25:13.639Z,23.00
2019-04-05T09:27:45.630Z,21.83
2019-04-05T09:30:17.956Z,20.47
2019-04-05T09:32:50.066Z,21.43
2019-04-05T09:35:22.123Z,21.17
2019-04-05T09:37:54.251Z,20.40
2019-04-05T09:40:26.351Z,18.83
2019-04-05T09:42:58.432Z,18.23
2019-04-05T09:45:30.459Z,18.73
2019-04-05T09:48:02.486Z,20.60
2019-04-05T09:50:34.494Z,21.37
2019-04-05T09:53:06.511Z,19.23
2019-04-05T09:55:38.580Z,21.97
2019-04-05T09:58:10.586Z,19.40
2019-04-05T10:00:42.745Z,20.37
2019-04-05T10:03:14.792Z,18.87
2019-04-05T10:05:48.112Z,18.07
2019-04-05T10:08:20.151Z,19.90
2019-04-05T10:10:52.291Z,18.30
2019-04-05T10:13:24.289Z,17.70
2019-04-05T10:15:56.265Z,19.10
2019-04-05T10:18:28.287Z,18.67
2019-04-05T10:21:00.250Z,17.10
2019-04-05T10:23:32.243Z,15.97
2019-04-05T10:26:04.798Z,16.33
2019-04-05T10:28:36.830Z,16.57
2019-04-05T10:31:08.809Z,20.10
2019-04-05T10:33:40.802Z,18.03
2019-04-05T10:36:12.789Z,18.10
2019-04-05T10:38:44.802Z,17.90
2019-04-05T10:41:16.810Z,17.97
2019-04-05T10:43:48.798Z,18.17
2019-04-05T10:46:20.795Z,18.40
2019-04-05T10:48:52.843Z,16.70
2019-04-05T10:51:25.157Z,18.97
2019-04-05T10:53:57.203Z,19.47
2019-04-05T10:56:36.514Z,18.40
2019-04-05T10:59:10.189Z,16.23
2019-04-05T11:01:42.339Z,18.17
2019-04-05T11:04:17.427Z,17.97
2019-04-05T11:06:51.243Z,19.57
2019-04-05T11:09:23.318Z,17.20
2019-04-05T11:11:55.339Z,17.03
2019-04-05T11:14:27.336Z,17.53
2019-04-05T11:16:59.376Z,17.97
2019-04-05T11:19:32.678Z,17.53
2019-04-05T11:22:05.667Z,15.93
2019-04-05T11:24:37.749Z,18.07
2019-04-05T11:27:09.783Z,19.00
2019-04-05T11:29:41.832Z,16.70
2019-04-05T11:32:15.009Z,18.37
2019-04-05T11:34:47.046Z,15.30
2019-04-05T11:37:19.769Z,17.30
2019-04-05T11:39:52.221Z,15.77
2019-04-05T11:42:24.882Z,17.57
2019-04-05T11:44:57.893Z,16.77
2019-04-05T11:47:30.058Z,18.07
2019-04-05T11:50:02.159Z,17.00
2019-04-05T11:52:34.301Z,17.73
2019-04-05T11:55:07.082Z,18.27
2019-04-05T11:57:41.074Z,17.10
2019-04-05T12:00:18.433Z,18.50
2019-04-05T12:02:55.461Z,18.63
2019-04-05T12:05:28.013Z,17.30
2019-04-05T12:08:02.250Z,16.30
2019-04-05T12:10:35.503Z,16.97
2019-04-05T12:13:07.597Z,17.47
2019-04-05T12:15:39.752Z,19.60
2019-04-05T12:18:11.911Z,19.07
2019-04-05T12:20:52.005Z,18.83
2019-04-05T12:23:18.019Z,16.37
2019-04-05T12:25:50.240Z,18.03
2019-04-05T12:28:22.280Z,16.93
2019-04-05T12:30:54.670Z,23.70
2019-04-05T12:33:26.615Z,17.43
2019-04-05T12:35:58.659Z,18.43
2019-04-05T12:38:32.466Z,17.57
2019-04-05T12:41:04.930Z,19.40
2019-04-05T12:43:37.041Z,19.57
2019-04-05T12:46:09.040Z,28.97
2019-04-05T12:48:45.425Z,21.07
2019-04-05T12:51:16.467Z,23.90
2019-04-05T12:53:48.469Z,17.67
2019-04-05T12:56:20.451Z,17.70
2019-04-05T12:58:55.922Z,16.17
2019-04-05T13:01:28.542Z,16.23
2019-04-05T13:04:00.594Z,17.37
2019-04-05T13:06:32.628Z,15.70
2019-04-05T13:09:08.245Z,16.77
2019-04-05T13:11:40.731Z,15.53
2019-04-05T13:14:12.844Z,15.97
2019-04-05T13:16:49.419Z,13.73
2019-04-05T13:19:20.653Z,15.27
2019-04-05T13:21:52.769Z,14.70
2019-04-05T13:24:24.716Z,15.33
2019-04-05T13:26:57.980Z,13.70
2019-04-05T13:29:30.005Z,15.17
2019-04-05T13:32:02.084Z,13.47
2019-04-05T13:34:34.093Z,14.20
2019-04-05T13:37:06.134Z,14.77
2019-04-05T13:39:38.286Z,14.47
2019-04-05T13:42:10.429Z,15.30
2019-04-05T13:44:42.581Z,15.83
2019-04-05T13:47:14.848Z,15.50
2019-04-05T13:49:49.129Z,14.90
2019-04-05T13:52:21.317Z,16.97
2019-04-05T13:54:54.585Z,15.33
2019-04-05T13:57:28.667Z,16.67
2019-04-05T14:00:00.878Z,15.00
2019-04-05T14:02:33.086Z,14.23
2019-04-05T14:05:05.428Z,14.53
2019-04-05T14:07:38.503Z,14.80
2019-04-05T14:10:12.503Z,15.27
2019-04-05T14:12:44.589Z,14.10
2019-04-05T14:15:16.611Z,13.87
2019-04-05T14:17:49.414Z,15.27
2019-04-05T14:20:24.337Z,14.63
2019-04-05T14:22:55.840Z,13.13
2019-04-05T14:25:30.166Z,14.50
2019-04-05T14:28:02.473Z,13.70
2019-04-05T14:30:35.771Z,15.07
2019-04-05T14:33:07.764Z,13.70
2019-04-05T14:35:39.844Z,14.30
2019-04-05T14:38:11.993Z,12.90
2019-04-05T14:40:44.004Z,15.00
2019-04-05T14:43:16.136Z,14.60
2019-04-05T14:45:48.179Z,13.67
2019-04-05T14:48:20.171Z,17.13
2019-04-05T14:50:52.206Z,14.27
2019-04-05T14:53:24.228Z,14.53
2019-04-05T14:55:59.067Z,14.50
2019-04-05T14:58:30.122Z,14.40
2019-04-05T15:01:02.370Z,14.53
2019-04-05T15:03:34.984Z,12.33
2019-04-05T15:06:07.169Z,13.60
2019-04-05T15:08:39.327Z,13.90
2019-04-05T15:11:11.410Z,13.30
2019-04-05T15:13:43.420Z,14.33
2019-04-05T15:16:15.470Z,12.70
2019-04-05T15:18:47.558Z,13.10
2019-04-05T15:21:19.631Z,11.83
2019-04-05T15:23:51.680Z,10.50
2019-04-05T15:26:23.760Z,12.37
2019-04-05T15:28:55.864Z,12.30
2019-04-05T15:31:27.939Z,12.30
2019-04-05T15:34:00.047Z,12.10
2019-04-05T15:36:32.305Z,12.50
2019-04-05T15:39:07.616Z,13.03
2019-04-05T15:41:39.715Z,12.97
2019-04-05T15:44:11.743Z,10.87
2019-04-05T15:46:43.829Z,11.67
2019-04-05T15:49:15.885Z,12.30
2019-04-05T15:51:47.919Z,12.80
2019-04-05T15:54:20.011Z,12.63
2019-04-05T15:56:52.139Z,12.37
2019-04-05T15:59:24.660Z,11.13
2019-04-05T16:01:56.886Z,12.80
2019-04-05T16:04:28.960Z,13.77
2019-04-05T16:07:00.955Z,11.50
2019-04-05T16:09:33.004Z,12.43
2019-04-05T16:12:05.175Z,13.87
2019-04-05T16:14:37.267Z,11.20
2019-04-05T16:17:12.398Z,12.83
2019-04-05T16:19:44.166Z,13.30
2019-04-05T16:22:16.130Z,11.80
2019-04-05T16:24:48.236Z,13.83
2019-04-05T16:27:20.249Z,12.73
2019-04-05T16:29:52.270Z,11.40
2019-04-05T16:32:24.269Z,12.97
2019-04-05T16:34:56.261Z,12.67
2019-04-05T16:37:28.331Z,14.47
2019-04-05T16:40:00.323Z,13.80
2019-04-05T16:42:32.419Z,13.27
2019-04-05T16:45:05.229Z,15.47
2019-04-05T16:47:37.223Z,13.10
2019-04-05T16:50:09.784Z,13.73
2019-04-05T16:52:45.115Z,14.27
2019-04-05T16:55:15.863Z,12.97
2019-04-05T16:57:48.093Z,13.63
2019-04-05T17:00:20.593Z,11.77
2019-04-05T17:02:52.647Z,12.87
2019-04-05T17:05:24.739Z,13.43
2019-04-05T17:07:56.797Z,22.57
2019-04-05T17:10:29.079Z,18.03
2019-04-05T17:13:01.281Z,14.83
2019-04-05T17:15:33.413Z,14.13
2019-04-05T17:18:05.478Z,13.07
2019-04-05T17:20:37.524Z,14.27
2019-04-05T17:23:09.636Z,13.10
2019-04-05T17:25:41.712Z,13.87
2019-04-05T17:28:13.711Z,15.10
2019-04-05T17:30:45.998Z,13.70
2019-04-05T17:33:18.124Z,13.23
2019-04-05T17:35:50.241Z,14.63
2019-04-05T17:38:22.243Z,14.93
2019-04-05T17:40:54.263Z,14.83
2019-04-05T17:43:26.317Z,13.93
2019-04-05T17:45:58.386Z,14.67
2019-04-05T17:48:30.447Z,12.97
2019-04-05T17:51:02.525Z,14.53
2019-04-05T17:53:34.674Z,14.17
2019-04-05T17:56:06.789Z,12.70
2019-04-05T17:58:38.929Z,13.73
2019-04-05T18:01:10.994Z,15.10
2019-04-05T18:03:43.070Z,14.63
2019-04-05T18:06:15.446Z,12.70
2019-04-05T18:08:47.493Z,15.60
2019-04-05T18:11:19.594Z,14.87
2019-04-05T18:13:51.615Z,15.20
2019-04-05T18:16:23.672Z,14.20
2019-04-05T18:18:55.741Z,15.30
2019-04-05T18:21:27.918Z,13.63
2019-04-05T18:24:00.070Z,12.83
2019-04-05T18:26:32.210Z,12.00
2019-04-05T18:29:04.268Z,11.57
2019-04-05T18:31:36.410Z,12.40
2019-04-05T18:34:08.479Z,13.20
2019-04-05T18:36:40.543Z,13.40
2019-04-05T18:39:12.700Z,12.27
2019-04-05T18:41:44.754Z,14.23
2019-04-05T18:44:16.817Z,15.67
2019-04-05T18:46:48.898Z,17.63
2019-04-05T18:49:21.105Z,15.53
2019-04-05T18:51:53.187Z,17.70
2019-04-05T18:54:25.344Z,15.67
2019-04-05T18:56:57.472Z,17.20
2019-04-05T18:59:29.603Z,15.87
2019-04-05T19:02:01.625Z,13.33
2019-04-05T19:04:33.744Z,12.70
2019-04-05T19:07:05.742Z,12.50
2019-04-05T19:09:37.849Z,14.63
2019-04-05T19:12:09.830Z,14.10
2019-04-05T19:14:41.986Z,12.17
2019-04-05T19:17:23.927Z,15.53
2019-04-05T19:19:48.023Z,15.13
2019-04-05T19:22:20.111Z,14.50
2019-04-05T19:24:52.215Z,14.90
2019-04-05T19:27:24.240Z,15.97
2019-04-05T19:29:56.278Z,14.80
2019-04-05T19:50:26.202Z,15.13
2019-04-05T19:52:58.206Z,16.47
2019-04-05T19:55:30.310Z,14.60
2019-04-05T19:58:02.391Z,14.63
2019-04-05T20:00:34.489Z,16.07
2019-04-05T20:03:06.600Z,18.77
2019-04-05T20:05:38.688Z,16.97
2019-04-05T20:08:10.674Z,17.47
2019-04-05T20:10:42.703Z,13.27
2019-04-05T20:13:14.859Z,13.93
2019-04-05T20:15:46.920Z,14.53
2019-04-05T20:18:18.941Z,13.10
2019-04-05T20:20:51.112Z,14.87
2019-04-05T20:23:23.243Z,12.53
2019-04-05T20:25:55.244Z,13.87
2019-04-05T20:28:27.299Z,13.87
2019-04-05T20:30:59.441Z,14.17
2019-04-05T20:33:31.555Z,16.37
2019-04-05T20:36:03.669Z,13.63
2019-04-05T20:38:35.728Z,14.27
2019-04-05T20:41:07.790Z,14.07
2019-04-05T20:43:39.974Z,14.40
2019-04-05T20:46:12.116Z,13.17
2019-04-05T20:48:44.177Z,12.93
2019-04-05T20:51:16.168Z,15.83
2019-04-05T20:53:48.225Z,16.70
2019-04-05T20:56:20.259Z,14.40
2019-04-05T20:58:52.405Z,15.03
2019-04-05T21:01:24.594Z,16.13
2019-04-05T21:03:56.616Z,16.00
2019-04-05T21:06:28.651Z,15.70
2019-04-05T21:09:00.742Z,18.53
2019-04-05T21:11:32.736Z,17.50
2019-04-05T21:14:04.826Z,16.97
2019-04-05T21:16:36.849Z,15.90
2019-04-05T21:19:08.933Z,13.80
2019-04-05T21:21:40.941Z,14.63
2019-04-05T21:24:12.989Z,14.47
2019-04-05T21:26:45.008Z,15.30
2019-04-05T21:29:17.073Z,14.50
2019-04-05T21:31:49.213Z,23.73
2019-04-05T21:34:21.285Z,20.67
2019-04-05T21:36:53.316Z,18.13
2019-04-05T21:39:25.363Z,17.47
2019-04-05T21:41:57.382Z,19.37
2019-04-05T21:44:29.408Z,16.27
2019-04-05T21:47:01.421Z,18.27
2019-04-05T21:49:33.471Z,17.40
2019-04-05T21:52:05.511Z,22.90
2019-04-05T21:54:47.205Z,20.37
2019-04-05T21:57:11.558Z,19.77
2019-04-05T21:59:43.580Z,20.33
2019-04-05T22:02:16.087Z,21.17
2019-04-05T22:04:48.128Z,19.07
2019-04-05T22:07:20.107Z,23.53
2019-04-05T22:09:52.202Z,22.83
2019-04-05T22:12:24.214Z,19.20
2019-04-05T22:14:56.263Z,18.87
2019-04-05T22:17:28.343Z,19.30
2019-04-05T22:20:00.457Z,18.43
2019-04-05T22:22:32.452Z,16.37
2019-04-05T22:25:05.148Z,18.97
2019-04-05T22:27:37.154Z,23.60
2019-04-05T22:30:09.363Z,20.90
2019-04-05T22:32:41.358Z,19.77
2019-04-05T22:35:13.372Z,18.70
2019-04-05T22:37:45.405Z,20.37
2019-04-05T22:40:17.485Z,20.57
2019-04-05T22:42:49.425Z,23.20
2019-04-05T22:45:21.463Z,22.73
2019-04-05T22:47:53.441Z,21.73
2019-04-05T22:50:25.461Z,25.10
2019-04-05T22:52:57.478Z,20.63
2019-04-05T22:55:29.524Z,21.67
2019-04-05T22:58:01.534Z,20.93
2019-04-05T23:00:33.496Z,20.83
2019-04-05T23:03:05.522Z,20.13
2019-04-05T23:05:37.523Z,22.10
2019-04-05T23:08:09.626Z,24.90
2019-04-05T23:10:41.571Z,23.27
2019-04-05T23:13:13.580Z,22.73
2019-04-05T23:15:45.598Z,21.93
2019-04-05T23:18:17.609Z,23.37
2019-04-05T23:20:49.622Z,24.67
2019-04-05T23:23:21.647Z,20.10
2019-04-05T23:25:53.654Z,21.47
2019-04-05T23:28:25.679Z,23.10
2019-04-05T23:30:57.652Z,21.87
2019-04-05T23:33:29.645Z,22.80
2019-04-05T23:36:01.584Z,26.87
2019-04-05T23:38:33.579Z,27.07
2019-04-05T23:41:05.522Z,27.47
2019-04-05T23:43:37.508Z,27.33
2019-04-05T23:46:09.533Z,26.53
2019-04-05T23:48:41.529Z,25.60
2019-04-05T23:51:13.522Z,25.17
2019-04-05T23:53:45.555Z,22.33
2019-04-05T23:56:17.548Z,23.60
2019-04-05T23:58:49.556Z,26.47
